METAR Data
IDs: Format: Raw Decoded Include TAF

Data at: 0523 UTC 24 Sep 2020

METAR for:KIAH (Houston/Bush Intl, TX, US)
Text:KIAH 240453Z 31007KT 10SM BKN015 OVC022 22/19 A2988 RMK AO2 RAB0355E05 SLP119 P0000 T02220194
Temperature: 22.2°C ( 72°F)
Dewpoint: 19.4°C ( 67°F) [RH = 84%]
Pressure (altimeter):29.88 inches Hg (1011.9 mb) [Sea level pressure: 1011.9 mb]
Winds:from the NW (310 degrees) at 8 MPH (7 knots; 3.6 m/s)
Visibility:10 or more sm (16+ km)
Ceiling:1500 feet AGL
Clouds: broken clouds at 1500 feet AGL, overcast cloud deck at 2200 feet AGL

METAR for:KHOU (Houston/Hobby Arpt, TX, US)
Text:KHOU 240453Z 34008KT 10SM SCT013 OVC026 23/20 A2987 RMK AO2 RAE51 SLP121 P0000 T02280200
Temperature: 22.8°C ( 73°F)
Dewpoint: 20.0°C ( 68°F) [RH = 84%]
Pressure (altimeter):29.87 inches Hg (1011.6 mb) [Sea level pressure: 1012.1 mb]
Winds:from the NNW (340 degrees) at 9 MPH (8 knots; 4.1 m/s)
Visibility:10 or more sm (16+ km)
Ceiling:2600 feet AGL
Clouds: scattered clouds at 1300 feet AGL, overcast cloud deck at 2600 feet AGL

METAR for:KGLS (Galveston/Scholes In, TX, US)
Text:KGLS 240518Z AUTO 33013KT 7SM -RA BKN017 OVC030 23/21 A2987 RMK AO2 RAB16 P0000 T02330211
Temperature: 23.3°C ( 74°F)
Dewpoint: 21.1°C ( 70°F) [RH = 87%]
Pressure (altimeter):29.87 inches Hg (1011.6 mb)
Winds:from the NNW (330 degrees) at 15 MPH (13 knots; 6.7 m/s)
Visibility: 7 sm ( 11 km)
Ceiling:1700 feet AGL
Clouds: broken clouds at 1700 feet AGL, overcast cloud deck at 3000 feet AGL
Weather:-RA (light rain)
QC Flag:automated observation with no human augmentation

METAR for:KLVJ (Houston/Pearland Rgn, TX, US)
Text:KLVJ 240509Z AUTO 34006KT 10SM BKN014 OVC028 23/19 A2989 RMK AO2 T02330194
Temperature: 23.3°C ( 74°F)
Dewpoint: 19.4°C ( 67°F) [RH = 79%]
Pressure (altimeter):29.89 inches Hg (1012.3 mb)
Winds:from the NNW (340 degrees) at 7 MPH (6 knots; 3.1 m/s)
Visibility:10 or more sm (16+ km)
Ceiling:1400 feet AGL
Clouds: broken clouds at 1400 feet AGL, overcast cloud deck at 2800 feet AGL
QC Flag:automated observation with no human augmentation

METAR for:KSGR (Houston/Sugar Land R, TX, US)
Text:KSGR 240453Z AUTO 34007KT 10SM OVC024 23/19 A2989 RMK AO2 SLP121 T02280194
Temperature: 22.8°C ( 73°F)
Dewpoint: 19.4°C ( 67°F) [RH = 81%]
Pressure (altimeter):29.89 inches Hg (1012.3 mb) [Sea level pressure: 1012.1 mb]
Winds:from the NNW (340 degrees) at 8 MPH (7 knots; 3.6 m/s)
Visibility:10 or more sm (16+ km)
Ceiling:2400 feet AGL
Clouds: overcast cloud deck at 2400 feet AGL
QC Flag:automated observation with no human augmentation

METAR for:KDWH (Houston/Hooks Mem, TX, US)
Text:KDWH 240453Z AUTO 33005KT 10SM OVC021 22/18 A2989 RMK AO2 SLP119 T02170178
Temperature: 21.7°C ( 71°F)
Dewpoint: 17.8°C ( 64°F) [RH = 79%]
Pressure (altimeter):29.89 inches Hg (1012.3 mb) [Sea level pressure: 1011.9 mb]
Winds:from the NNW (330 degrees) at 6 MPH (5 knots; 2.6 m/s)
Visibility:10 or more sm (16+ km)
Ceiling:2100 feet AGL
Clouds: overcast cloud deck at 2100 feet AGL
QC Flag:automated observation with no human augmentation

METAR for:KCLL (College Station/East, TX, US)
Text:KCLL 240501Z AUTO 34006KT 7SM -RA OVC014 21/19 A2992 RMK AO2 P0000 T02060189
Temperature: 20.6°C ( 69°F)
Dewpoint: 18.9°C ( 66°F) [RH = 90%]
Pressure (altimeter):29.92 inches Hg (1013.3 mb)
Winds:from the NNW (340 degrees) at 7 MPH (6 knots; 3.1 m/s)
Visibility: 7 sm ( 11 km)
Ceiling:1400 feet AGL
Clouds: overcast cloud deck at 1400 feet AGL
Weather:-RA (light rain)
QC Flag:automated observation with no human augmentation

METAR for:KUTS (Huntsville Muni, TX, US)
Text:KUTS 240453Z AUTO VRB03KT 10SM FEW011 OVC018 21/18 A2990 RMK AO2 SLP122 T02110183
Temperature: 21.1°C ( 70°F)
Dewpoint: 18.3°C ( 65°F) [RH = 84%]
Pressure (altimeter):29.90 inches Hg (1012.6 mb) [Sea level pressure: 1012.2 mb]
Winds:variable direction winds at 3 MPH (3 knots; 1.5 m/s)
Visibility:10 or more sm (16+ km)
Ceiling:1800 feet AGL
Clouds: few clouds at 1100 feet AGL, overcast cloud deck at 1800 feet AGL
QC Flag:automated observation with no human augmentation

METAR for:KCXO (Conroe/Executive Arp, TX, US)
Text:KCXO 240516Z AUTO 32007KT 10SM BKN009 OVC015 21/19 A2989 RMK AO2 CIG 008V013 T02110194
Temperature: 21.1°C ( 70°F)
Dewpoint: 19.4°C ( 67°F) [RH = 90%]
Pressure (altimeter):29.89 inches Hg (1012.3 mb)
Winds:from the NW (320 degrees) at 8 MPH (7 knots; 3.6 m/s)
Visibility:10 or more sm (16+ km)
Ceiling:900 feet AGL
Clouds: broken clouds at 900 feet AGL, overcast cloud deck at 1500 feet AGL
QC Flag:automated observation with no human augmentation

METAR for:KLBX (Angleton/Texas Gulf, TX, US)
Text:KLBX 240453Z AUTO 34004KT 10SM OVC040 23/21 A2988 RMK AO2 SLP117 T02280206
Temperature: 22.8°C ( 73°F)
Dewpoint: 20.6°C ( 69°F) [RH = 87%]
Pressure (altimeter):29.88 inches Hg (1011.9 mb) [Sea level pressure: 1011.7 mb]
Winds:from the NNW (340 degrees) at 5 MPH (4 knots; 2.1 m/s)
Visibility:10 or more sm (16+ km)
Ceiling:4000 feet AGL
Clouds: overcast cloud deck at 4000 feet AGL
QC Flag:automated observation with no human augmentation

METAR for:KPSX (Palacios Muni, TX, US)
Text:KPSX 240452Z AUTO 32005KT 10SM OVC036 23/21 A2989 RMK AO2 SLP121 T02280211
Temperature: 22.8°C ( 73°F)
Dewpoint: 21.1°C ( 70°F) [RH = 90%]
Pressure (altimeter):29.89 inches Hg (1012.3 mb) [Sea level pressure: 1012.1 mb]
Winds:from the NW (320 degrees) at 6 MPH (5 knots; 2.6 m/s)
Visibility:10 or more sm (16+ km)
Ceiling:3600 feet AGL
Clouds: overcast cloud deck at 3600 feet AGL
QC Flag:automated observation with no human augmentation